sensor_id;sensor_type;location;lat;lon;timestamp;pressure;altitude;pressure_sealevel;temperature;humidity
12594;BME280;6362;50.208;9.182;2023-05-15T00:00:55;99502.41;;;9.52;85.41
12594;BME280;6362;50.208;9.182;2023-05-15T00:03:21;99501.63;;;9.45;85.91
12594;BME280;6362;50.208;9.182;2023-05-15T00:05:46;99500.00;;;9.34;86.05
12594;BME280;6362;50.208;9.182;2023-05-15T00:08:12;99494.97;;;9.17;85.84
12594;BME280;6362;50.208;9.182;2023-05-15T00:10:37;99501.06;;;9.11;86.65
12594;BME280;6362;50.208;9.182;2023-05-15T00:13:03;99495.03;;;9.11;86.30
12594;BME280;6362;50.208;9.182;2023-05-15T00:15:28;99505.34;;;9.17;87.06
12594;BME280;6362;50.208;9.182;2023-05-15T00:17:54;99502.81;;;9.11;86.82
12594;BME280;6362;50.208;9.182;2023-05-15T00:20:19;99495.94;;;9.04;87.21
12594;BME280;6362;50.208;9.182;2023-05-15T00:22:45;99495.09;;;9.00;86.93
12594;BME280;6362;50.208;9.182;2023-05-15T00:25:10;99489.13;;;8.90;87.67
12594;BME280;6362;50.208;9.182;2023-05-15T00:27:36;99489.09;;;8.92;87.81
12594;BME280;6362;50.208;9.182;2023-05-15T00:30:01;99484.78;;;8.95;88.59
12594;BME280;6362;50.208;9.182;2023-05-15T00:32:27;99482.13;;;9.00;88.67
12594;BME280;6362;50.208;9.182;2023-05-15T00:34:52;99492.53;;;9.00;88.51
12594;BME280;6362;50.208;9.182;2023-05-15T00:37:17;99489.94;;;8.95;88.69
12594;BME280;6362;50.208;9.182;2023-05-15T00:39:43;99492.53;;;9.00;88.49
12594;BME280;6362;50.208;9.182;2023-05-15T00:42:09;99483.94;;;8.90;88.66
12594;BME280;6362;50.208;9.182;2023-05-15T00:44:35;99489.09;;;8.92;88.54
12594;BME280;6362;50.208;9.182;2023-05-15T00:47:01;99489.06;;;8.96;88.70
12594;BME280;6362;50.208;9.182;2023-05-15T00:49:28;99489.13;;;8.90;88.69
12594;BME280;6362;50.208;9.182;2023-05-15T00:51:55;99484.81;;;8.88;89.07
12594;BME280;6362;50.208;9.182;2023-05-15T00:54:22;99484.00;;;8.81;89.23
12594;BME280;6362;50.208;9.182;2023-05-15T00:56:48;99484.00;;;8.84;89.51
12594;BME280;6362;50.208;9.182;2023-05-15T00:59:15;99471.91;;;8.83;89.68
12594;BME280;6362;50.208;9.182;2023-05-15T01:01:41;99475.31;;;8.90;89.26
12594;BME280;6362;50.208;9.182;2023-05-15T01:04:09;99476.13;;;8.93;89.16
12594;BME280;6362;50.208;9.182;2023-05-15T01:06:36;99469.25;;;8.91;89.44
12594;BME280;6362;50.208;9.182;2023-05-15T01:09:02;99471.00;;;8.89;89.62
12594;BME280;6362;50.208;9.182;2023-05-15T01:11:28;99470.16;;;8.85;89.45
12594;BME280;6362;50.208;9.182;2023-05-15T01:14:04;99469.25;;;8.91;89.26
12594;BME280;6362;50.208;9.182;2023-05-15T01:16:34;99470.94;;;8.93;89.62
12594;BME280;6362;50.208;9.182;2023-05-15T01:19:00;99473.59;;;8.87;89.82
12594;BME280;6362;50.208;9.182;2023-05-15T01:21:55;99471.81;;;8.94;89.56
12594;BME280;6362;50.208;9.182;2023-05-15T01:32:09;99468.38;;;8.90;89.94
12594;BME280;6362;50.208;9.182;2023-05-15T01:35:15;99471.84;;;8.89;89.64
12594;BME280;6362;50.208;9.182;2023-05-15T01:37:48;99470.97;;;8.90;89.13
12594;BME280;6362;50.208;9.182;2023-05-15T01:40:16;99471.91;;;8.80;89.54
12594;BME280;6362;50.208;9.182;2023-05-15T01:42:53;99472.81;;;8.75;89.23
12594;BME280;6362;50.208;9.182;2023-05-15T01:45:22;99469.41;;;8.69;89.62
12594;BME280;6362;50.208;9.182;2023-05-15T01:47:48;99464.22;;;8.69;89.40
12594;BME280;6362;50.208;9.182;2023-05-15T01:50:17;99463.38;;;8.67;89.78
12594;BME280;6362;50.208;9.182;2023-05-15T01:52:47;99469.38;;;8.71;89.31
12594;BME280;6362;50.208;9.182;2023-05-15T01:55:13;99466.88;;;8.62;89.43
12594;BME280;6362;50.208;9.182;2023-05-15T01:57:40;99468.66;;;8.52;90.01
12594;BME280;6362;50.208;9.182;2023-05-15T02:00:07;99470.41;;;8.50;90.06
12594;BME280;6362;50.208;9.182;2023-05-15T02:02:33;99473.91;;;8.41;90.01
12594;BME280;6362;50.208;9.182;2023-05-15T02:05:00;99471.31;;;8.41;90.47
12594;BME280;6362;50.208;9.182;2023-05-15T02:07:25;99471.31;;;8.46;90.13
12594;BME280;6362;50.208;9.182;2023-05-15T02:09:51;99473.94;;;8.40;90.54
12594;BME280;6362;50.208;9.182;2023-05-15T02:12:18;99468.78;;;8.38;90.17
12594;BME280;6362;50.208;9.182;2023-05-15T02:14:47;99467.91;;;8.36;90.11
12594;BME280;6362;50.208;9.182;2023-05-15T02:17:13;99479.16;;;8.29;90.04
12594;BME280;6362;50.208;9.182;2023-05-15T02:19:39;99468.84;;;8.18;90.33
12594;BME280;6362;50.208;9.182;2023-05-15T02:22:04;99473.16;;;8.15;90.57
12594;BME280;6362;50.208;9.182;2023-05-15T02:24:30;99471.34;;;8.31;90.88
12594;BME280;6362;50.208;9.182;2023-05-15T02:27:26;99472.19;;;8.33;90.92
12594;BME280;6362;50.208;9.182;2023-05-15T02:32:52;99458.47;;;8.20;91.11
12594;BME280;6362;50.208;9.182;2023-05-15T02:38:07;99457.63;;;8.15;90.72
12594;BME280;6362;50.208;9.182;2023-05-15T02:40:35;99469.72;;;8.17;90.86
12594;BME280;6362;50.208;9.182;2023-05-15T02:43:02;99471.50;;;8.03;91.13
12594;BME280;6362;50.208;9.182;2023-05-15T02:45:29;99468.94;;;7.92;91.01
12594;BME280;6362;50.208;9.182;2023-05-15T02:47:55;99464.66;;;7.87;91.31
12594;BME280;6362;50.208;9.182;2023-05-15T02:50:20;99472.47;;;7.84;91.62
12594;BME280;6362;50.208;9.182;2023-05-15T02:52:46;99469.03;;;7.79;91.72
12594;BME280;6362;50.208;9.182;2023-05-15T02:55:12;99469.88;;;7.79;91.81
12594;BME280;6362;50.208;9.182;2023-05-15T02:57:37;99470.78;;;7.72;91.64
12594;BME280;6362;50.208;9.182;2023-05-15T03:00:03;99468.19;;;7.71;91.63
12594;BME280;6362;50.208;9.182;2023-05-15T03:02:31;99466.47;;;7.60;92.01
12594;BME280;6362;50.208;9.182;2023-05-15T03:04:56;99463.06;;;7.55;91.92
12594;BME280;6362;50.208;9.182;2023-05-15T03:07:22;99466.50;;;7.57;91.99
12594;BME280;6362;50.208;9.182;2023-05-15T03:09:47;99460.50;;;7.51;91.81
12594;BME280;6362;50.208;9.182;2023-05-15T03:12:13;99462.22;;;7.47;92.05
12594;BME280;6362;50.208;9.182;2023-05-15T03:14:38;99457.03;;;7.47;92.32
12594;BME280;6362;50.208;9.182;2023-05-15T03:17:04;99462.19;;;7.49;92.58
12594;BME280;6362;50.208;9.182;2023-05-15T03:19:29;99455.31;;;7.48;92.75
12594;BME280;6362;50.208;9.182;2023-05-15T03:21:55;99444.09;;;7.53;92.84
12594;BME280;6362;50.208;9.182;2023-05-15T03:24:20;99448.41;;;7.48;92.59
12594;BME280;6362;50.208;9.182;2023-05-15T03:26:46;99451.88;;;7.43;92.44
12594;BME280;6362;50.208;9.182;2023-05-15T03:29:12;99455.31;;;7.43;92.87
12594;BME280;6362;50.208;9.182;2023-05-15T03:31:37;99450.19;;;7.38;93.00
12594;BME280;6362;50.208;9.182;2023-05-15T03:34:02;99453.63;;;7.36;93.03
12594;BME280;6362;50.208;9.182;2023-05-15T03:36:28;99451.03;;;7.37;92.74
12594;BME280;6362;50.208;9.182;2023-05-15T03:38:53;99453.63;;;7.30;92.97
12594;BME280;6362;50.208;9.182;2023-05-15T03:41:20;99457.94;;;7.31;92.94
12594;BME280;6362;50.208;9.182;2023-05-15T03:43:45;99453.63;;;7.34;92.98
12594;BME280;6362;50.208;9.182;2023-05-15T03:46:10;99463.09;;;7.37;93.41
12594;BME280;6362;50.208;9.182;2023-05-15T03:48:36;99457.94;;;7.34;93.44
12594;BME280;6362;50.208;9.182;2023-05-15T03:51:02;99464.81;;;7.41;93.46
12594;BME280;6362;50.208;9.182;2023-05-15T03:53:27;99464.84;;;7.35;92.85
12594;BME280;6362;50.208;9.182;2023-05-15T03:55:53;99467.44;;;7.35;92.85
12594;BME280;6362;50.208;9.182;2023-05-15T03:58:18;99469.16;;;7.36;92.84
12594;BME280;6362;50.208;9.182;2023-05-15T04:00:44;99467.44;;;7.35;93.04
12594;BME280;6362;50.208;9.182;2023-05-15T04:03:09;99466.56;;;7.33;92.91
12594;BME280;6362;50.208;9.182;2023-05-15T04:05:34;99461.41;;;7.33;92.80
12594;BME280;6362;50.208;9.182;2023-05-15T04:08:00;99463.09;;;7.40;92.63
12594;BME280;6362;50.208;9.182;2023-05-15T04:10:25;99460.50;;;7.55;92.23
12594;BME280;6362;50.208;9.182;2023-05-15T04:12:51;99463.06;;;7.55;91.96
12594;BME280;6362;50.208;9.182;2023-05-15T04:15:21;99467.38;;;7.52;91.69
12594;BME280;6362;50.208;9.182;2023-05-15T04:17:49;99464.81;;;7.50;91.99
12594;BME280;6362;50.208;9.182;2023-05-15T04:20:18;99467.38;;;7.56;91.83
12594;BME280;6362;50.208;9.182;2023-05-15T04:22:44;99469.13;;;7.51;92.11
12594;BME280;6362;50.208;9.182;2023-05-15T04:25:11;99467.38;;;7.47;92.35
12594;BME280;6362;50.208;9.182;2023-05-15T04:27:38;99464.81;;;7.43;92.39
12594;BME280;6362;50.208;9.182;2023-05-15T04:30:04;99459.66;;;7.41;92.40
12594;BME280;6362;50.208;9.182;2023-05-15T04:32:30;99457.91;;;7.41;92.71
12594;BME280;6362;50.208;9.182;2023-05-15T04:34:55;99458.75;;;7.44;92.64
12594;BME280;6362;50.208;9.182;2023-05-15T04:37:21;99463.97;;;7.45;92.55
12594;BME280;6362;50.208;9.182;2023-05-15T04:39:46;99469.13;;;7.45;92.74
12594;BME280;6362;50.208;9.182;2023-05-15T04:42:12;99466.53;;;7.47;92.64
12594;BME280;6362;50.208;9.182;2023-05-15T04:44:37;99463.94;;;7.48;92.66
12594;BME280;6362;50.208;9.182;2023-05-15T04:47:03;99468.25;;;7.51;92.51
12594;BME280;6362;50.208;9.182;2023-05-15T04:49:29;99466.50;;;7.54;92.19
12594;BME280;6362;50.208;9.182;2023-05-15T04:51:54;99464.78;;;7.55;92.36
12594;BME280;6362;50.208;9.182;2023-05-15T04:54:20;99469.09;;;7.57;92.30
12594;BME280;6362;50.208;9.182;2023-05-15T04:56:45;99471.66;;;7.60;92.37
12594;BME280;6362;50.208;9.182;2023-05-15T04:59:11;99476.84;;;7.66;92.15
12594;BME280;6362;50.208;9.182;2023-05-15T05:01:37;99476.81;;;7.73;91.78
12594;BME280;6362;50.208;9.182;2023-05-15T05:04:03;99473.34;;;7.74;91.92
12594;BME280;6362;50.208;9.182;2023-05-15T05:06:28;99476.75;;;7.82;91.80
12594;BME280;6362;50.208;9.182;2023-05-15T05:08:54;99474.16;;;7.94;91.53
12594;BME280;6362;50.208;9.182;2023-05-15T05:11:20;99475.78;;;8.09;91.04
12594;BME280;6362;50.208;9.182;2023-05-15T05:13:46;99479.16;;;8.28;90.04
12594;BME280;6362;50.208;9.182;2023-05-15T05:16:11;99483.38;;;8.49;88.54
12594;BME280;6362;50.208;9.182;2023-05-15T05:18:37;99481.56;;;8.61;87.74
12594;BME280;6362;50.208;9.182;2023-05-15T05:21:02;99484.13;;;8.67;87.63
12594;BME280;6362;50.208;9.182;2023-05-15T05:23:29;99483.19;;;8.76;87.78
12594;BME280;6362;50.208;9.182;2023-05-15T05:25:54;99483.06;;;8.91;87.65
12594;BME280;6362;50.208;9.182;2023-05-15T05:28:20;99487.25;;;9.08;87.57
12594;BME280;6362;50.208;9.182;2023-05-15T05:30:46;99485.34;;;9.26;86.94
12594;BME280;6362;50.208;9.182;2023-05-15T05:33:12;99476.56;;;9.41;86.26
12594;BME280;6362;50.208;9.182;2023-05-15T05:35:38;99479.88;;;9.54;86.12
12594;BME280;6362;50.208;9.182;2023-05-15T05:38:03;99483.19;;;9.68;85.37
12594;BME280;6362;50.208;9.182;2023-05-15T05:40:29;99473.50;;;9.84;85.13
12594;BME280;6362;50.208;9.182;2023-05-15T05:42:59;99474.16;;;10.00;84.28
12594;BME280;6362;50.208;9.182;2023-05-15T05:45:24;99473.94;;;10.17;83.77
12594;BME280;6362;50.208;9.182;2023-05-15T05:47:50;99478.94;;;10.32;81.08
12594;BME280;6362;50.208;9.182;2023-05-15T05:50:15;99483.13;;;10.45;80.52
12594;BME280;6362;50.208;9.182;2023-05-15T05:52:41;99471.78;;;10.48;79.36
12594;BME280;6362;50.208;9.182;2023-05-15T05:55:06;99479.56;;;10.51;80.14
12594;BME280;6362;50.208;9.182;2023-05-15T05:57:32;99477.72;;;10.57;79.86
12594;BME280;6362;50.208;9.182;2023-05-15T05:59:58;99468.84;;;10.72;78.86
12594;BME280;6362;50.208;9.182;2023-05-15T06:02:23;99468.69;;;10.83;77.79
12594;BME280;6362;50.208;9.182;2023-05-15T06:04:49;99473.19;;;10.72;78.33
12594;BME280;6362;50.208;9.182;2023-05-15T06:07:15;99476.44;;;10.84;78.38
12594;BME280;6362;50.208;9.182;2023-05-15T06:09:40;99477.91;;;11.01;77.61
12594;BME280;6362;50.208;9.182;2023-05-15T06:12:06;99475.09;;;11.13;77.31
12594;BME280;6362;50.208;9.182;2023-05-15T06:14:32;99485.47;;;11.16;77.18
12594;BME280;6362;50.208;9.182;2023-05-15T06:16:59;99473.13;;;11.27;76.66
12594;BME280;6362;50.208;9.182;2023-05-15T06:19:25;99476.66;;;11.23;77.30
12594;BME280;6362;50.208;9.182;2023-05-15T06:21:51;99480.91;;;11.29;76.93
12594;BME280;6362;50.208;9.182;2023-05-15T06:24:17;99480.69;;;11.41;76.99
12594;BME280;6362;50.208;9.182;2023-05-15T06:26:42;99480.53;;;11.49;76.27
12594;BME280;6362;50.208;9.182;2023-05-15T06:29:08;99477.03;;;11.51;76.28
12594;BME280;6362;50.208;9.182;2023-05-15T06:31:33;99490.44;;;11.76;75.77
12594;BME280;6362;50.208;9.182;2023-05-15T06:33:59;99480.94;;;11.74;75.54
12594;BME280;6362;50.208;9.182;2023-05-15T06:36:24;99479.81;;;11.87;75.26
12594;BME280;6362;50.208;9.182;2023-05-15T06:38:50;99482.00;;;12.08;75.02
12594;BME280;6362;50.208;9.182;2023-05-15T06:41:15;99477.38;;;12.23;74.37
12594;BME280;6362;50.208;9.182;2023-05-15T06:43:40;99476.94;;;12.41;73.74
12594;BME280;6362;50.208;9.182;2023-05-15T06:46:06;99478.63;;;12.43;73.41
12594;BME280;6362;50.208;9.182;2023-05-15T06:48:31;99474.06;;;12.53;73.92
12594;BME280;6362;50.208;9.182;2023-05-15T06:50:57;99474.53;;;12.71;73.96
12594;BME280;6362;50.208;9.182;2023-05-15T06:53:22;99474.81;;;12.95;72.93
12594;BME280;6362;50.208;9.182;2023-05-15T06:55:48;99474.38;;;13.12;72.06
12594;BME280;6362;50.208;9.182;2023-05-15T06:58:13;99472.47;;;13.19;71.33
12594;BME280;6362;50.208;9.182;2023-05-15T07:00:42;99468.16;;;13.18;71.83
12594;BME280;6362;50.208;9.182;2023-05-15T07:03:07;99469.81;;;13.22;72.23
12594;BME280;6362;50.208;9.182;2023-05-15T07:05:33;99474.00;;;13.29;72.04
12594;BME280;6362;50.208;9.182;2023-05-15T07:07:58;99468.66;;;13.32;72.68
12594;BME280;6362;50.208;9.182;2023-05-15T07:10:24;99472.53;;;13.52;72.28
12594;BME280;6362;50.208;9.182;2023-05-15T07:12:49;99467.56;;;13.73;71.72
12594;BME280;6362;50.208;9.182;2023-05-15T07:15:15;99458.94;;;14.01;70.39
12594;BME280;6362;50.208;9.182;2023-05-15T07:17:41;99462.94;;;14.13;69.72
12594;BME280;6362;50.208;9.182;2023-05-15T07:20:07;99456.19;;;14.35;69.25
12594;BME280;6362;50.208;9.182;2023-05-15T07:22:33;99456.19;;;14.35;69.00
12594;BME280;6362;50.208;9.182;2023-05-15T07:24:58;99455.13;;;14.41;69.15
12594;BME280;6362;50.208;9.182;2023-05-15T07:27:24;99456.75;;;14.45;68.14
12594;BME280;6362;50.208;9.182;2023-05-15T07:29:51;99450.81;;;14.68;66.97
12594;BME280;6362;50.208;9.182;2023-05-15T07:32:18;99451.47;;;14.74;67.63
12594;BME280;6362;50.208;9.182;2023-05-15T07:34:44;99453.25;;;15.00;66.92
12594;BME280;6362;50.208;9.182;2023-05-15T07:37:09;99448.88;;;15.01;66.24
12594;BME280;6362;50.208;9.182;2023-05-15T07:39:34;99448.03;;;15.25;65.36
12594;BME280;6362;50.208;9.182;2023-05-15T07:42:00;99451.13;;;15.37;65.77
12594;BME280;6362;50.208;9.182;2023-05-15T07:44:25;99438.31;;;15.29;65.93
12594;BME280;6362;50.208;9.182;2023-05-15T07:46:51;99447.44;;;15.42;65.18
12594;BME280;6362;50.208;9.182;2023-05-15T07:49:16;99434.50;;;15.38;65.56
12594;BME280;6362;50.208;9.182;2023-05-15T07:51:42;99446.84;;;15.59;65.30
12594;BME280;6362;50.208;9.182;2023-05-15T07:54:07;99443.28;;;15.62;64.33
12594;BME280;6362;50.208;9.182;2023-05-15T07:56:32;99443.09;;;15.68;64.78
12594;BME280;6362;50.208;9.182;2023-05-15T07:58:58;99432.84;;;15.85;64.66
12594;BME280;6362;50.208;9.182;2023-05-15T08:01:23;99433.50;;;15.90;64.06
12594;BME280;6362;50.208;9.182;2023-05-15T08:03:49;99430.03;;;16.13;64.02
12594;BME280;6362;50.208;9.182;2023-05-15T08:06:14;99425.69;;;16.12;63.06
12594;BME280;6362;50.208;9.182;2023-05-15T08:08:40;99426.81;;;16.28;63.33
12594;BME280;6362;50.208;9.182;2023-05-15T08:11:05;99432.69;;;16.35;62.88
12594;BME280;6362;50.208;9.182;2023-05-15T08:13:31;99428.16;;;16.39;63.13
12594;BME280;6362;50.208;9.182;2023-05-15T08:15:56;99428.81;;;16.66;61.83
12594;BME280;6362;50.208;9.182;2023-05-15T08:18:22;99429.50;;;16.71;61.41
12594;BME280;6362;50.208;9.182;2023-05-15T08:20:48;99424.03;;;16.55;62.42
12594;BME280;6362;50.208;9.182;2023-05-15T08:23:13;99428.56;;;16.73;61.51
12594;BME280;6362;50.208;9.182;2023-05-15T08:25:39;99430.47;;;16.68;61.17
12594;BME280;6362;50.208;9.182;2023-05-15T08:28:04;99425.31;;;16.88;61.32
12594;BME280;6362;50.208;9.182;2023-05-15T08:30:30;99418.28;;;17.09;60.15
12594;BME280;6362;50.208;9.182;2023-05-15T08:32:55;99418.59;;;17.02;59.57
12594;BME280;6362;50.208;9.182;2023-05-15T08:35:21;99419.75;;;17.17;58.87
12594;BME280;6362;50.208;9.182;2023-05-15T08:37:46;99420.00;;;17.31;60.00
12594;BME280;6362;50.208;9.182;2023-05-15T08:40:12;99420.19;;;17.65;58.55
12594;BME280;6362;50.208;9.182;2023-05-15T08:42:48;99411.09;;;17.74;57.67
12594;BME280;6362;50.208;9.182;2023-05-15T08:45:15;99409.56;;;17.89;58.42
12594;BME280;6362;50.208;9.182;2023-05-15T08:47:41;99408.06;;;18.02;57.93
12594;BME280;6362;50.208;9.182;2023-05-15T08:52:36;99406.41;;;18.18;55.99
12594;BME280;6362;50.208;9.182;2023-05-15T08:55:03;99401.34;;;18.33;56.51
12594;BME280;6362;50.208;9.182;2023-05-15T08:57:28;99402.78;;;18.57;55.59
12594;BME280;6362;50.208;9.182;2023-05-15T08:59:55;99405.00;;;18.47;54.21
12594;BME280;6362;50.208;9.182;2023-05-15T09:02:21;99396.47;;;18.42;54.03
12594;BME280;6362;50.208;9.182;2023-05-15T09:04:47;99400.78;;;18.62;55.38
12594;BME280;6362;50.208;9.182;2023-05-15T09:07:14;99399.78;;;19.01;54.95
12594;BME280;6362;50.208;9.182;2023-05-15T09:09:41;99397.66;;;19.08;53.15
12594;BME280;6362;50.208;9.182;2023-05-15T09:12:10;99397.66;;;19.08;52.15
12594;BME280;6362;50.208;9.182;2023-05-15T09:14:35;99396.13;;;19.04;53.16
12594;BME280;6362;50.208;9.182;2023-05-15T09:17:01;99388.91;;;19.07;52.06
12594;BME280;6362;50.208;9.182;2023-05-15T09:19:26;99398.34;;;19.29;53.27
12594;BME280;6362;50.208;9.182;2023-05-15T09:21:52;99401.50;;;19.52;52.15
12594;BME280;6362;50.208;9.182;2023-05-15T09:24:24;99383.63;;;19.91;50.79
12594;BME280;6362;50.208;9.182;2023-05-15T09:27:01;99381.97;;;20.06;49.04
12594;BME280;6362;50.208;9.182;2023-05-15T09:29:29;99376.59;;;20.23;48.53
12594;BME280;6362;50.208;9.182;2023-05-15T09:31:55;99379.53;;;20.64;49.97
12594;BME280;6362;50.208;9.182;2023-05-15T09:34:31;99375.28;;;20.92;48.39
12594;BME280;6362;50.208;9.182;2023-05-15T09:36:57;99383.63;;;21.14;45.47
12594;BME280;6362;50.208;9.182;2023-05-15T09:39:23;99381.94;;;21.13;46.72
12594;BME280;6362;50.208;9.182;2023-05-15T09:41:48;99374.75;;;21.01;46.42
12594;BME280;6362;50.208;9.182;2023-05-15T09:44:41;99371.78;;;21.21;45.90
12594;BME280;6362;50.208;9.182;2023-05-15T09:47:08;99366.72;;;21.47;44.02
12594;BME280;6362;50.208;9.182;2023-05-15T09:49:34;99362.44;;;21.30;44.06
12594;BME280;6362;50.208;9.182;2023-05-15T09:52:00;99359.41;;;21.22;44.55
12594;BME280;6362;50.208;9.182;2023-05-15T09:54:26;99363.97;;;21.04;45.14
12594;BME280;6362;50.208;9.182;2023-05-15T09:56:52;99358.66;;;20.90;44.94
12594;BME280;6362;50.208;9.182;2023-05-15T09:59:19;99367.47;;;20.60;46.08
12594;BME280;6362;50.208;9.182;2023-05-15T10:01:49;99366.06;;;20.37;46.27
12594;BME280;6362;50.208;9.182;2023-05-15T10:04:16;99362.19;;;19.97;46.83
12594;BME280;6362;50.208;9.182;2023-05-15T10:06:45;99359.53;;;19.81;47.79
12594;BME280;6362;50.208;9.182;2023-05-15T10:09:11;99364.66;;;19.51;47.87
12594;BME280;6362;50.208;9.182;2023-05-15T10:11:40;99369.19;;;19.32;47.71
12594;BME280;6362;50.208;9.182;2023-05-15T10:14:09;99359.59;;;19.64;47.56
12594;BME280;6362;50.208;9.182;2023-05-15T10:16:36;99363.00;;;20.45;44.56
12594;BME280;6362;50.208;9.182;2023-05-15T10:19:07;99355.34;;;20.56;45.87
12594;BME280;6362;50.208;9.182;2023-05-15T10:21:35;99360.22;;;20.48;46.73
12594;BME280;6362;50.208;9.182;2023-05-15T10:24:02;99355.81;;;20.33;49.29
12594;BME280;6362;50.208;9.182;2023-05-15T10:26:36;99348.75;;;20.49;46.23
12594;BME280;6362;50.208;9.182;2023-05-15T10:29:10;99346.78;;;20.82;44.88
12594;BME280;6362;50.208;9.182;2023-05-15T10:31:37;99344.47;;;20.76;45.37
12594;BME280;6362;50.208;9.182;2023-05-15T10:34:03;99346.78;;;20.82;43.99
12594;BME280;6362;50.208;9.182;2023-05-15T10:36:33;99343.03;;;20.71;45.15
12594;BME280;6362;50.208;9.182;2023-05-15T10:39:00;99339.19;;;20.46;47.81
12594;BME280;6362;50.208;9.182;2023-05-15T10:41:32;99339.41;;;20.42;46.26
12594;BME280;6362;50.208;9.182;2023-05-15T10:43:58;99340.34;;;20.41;47.28
12594;BME280;6362;50.208;9.182;2023-05-15T10:46:28;99336.84;;;20.40;44.89
12594;BME280;6362;50.208;9.182;2023-05-15T10:48:54;99332.22;;;20.60;45.07
12594;BME280;6362;50.208;9.182;2023-05-15T10:51:24;99325.94;;;21.06;45.23
12594;BME280;6362;50.208;9.182;2023-05-15T10:53:51;99321.31;;;21.81;43.60
12594;BME280;6362;50.208;9.182;2023-05-15T10:56:16;99314.00;;;22.53;41.12
12594;BME280;6362;50.208;9.182;2023-05-15T10:58:49;99310.41;;;23.07;38.70
12594;BME280;6362;50.208;9.182;2023-05-15T11:01:32;99305.81;;;23.09;37.10
12594;BME280;6362;50.208;9.182;2023-05-15T11:04:08;99298.72;;;23.35;37.18
12594;BME280;6362;50.208;9.182;2023-05-15T11:06:35;99284.22;;;23.77;34.42
12594;BME280;6362;50.208;9.182;2023-05-15T11:14:18;99295.81;;;24.72;30.98
12594;BME280;6362;50.208;9.182;2023-05-15T11:24:53;99302.31;;;22.43;38.32
12594;BME280;6362;50.208;9.182;2023-05-15T11:27:20;99297.84;;;21.90;40.78
12594;BME280;6362;50.208;9.182;2023-05-15T11:30:14;99291.38;;;21.67;42.52
12594;BME280;6362;50.208;9.182;2023-05-15T11:32:41;99284.41;;;21.23;46.66
12594;BME280;6362;50.208;9.182;2023-05-15T11:37:57;99287.53;;;20.41;48.90
12594;BME280;6362;50.208;9.182;2023-05-15T11:40:31;99284.78;;;20.12;51.31
12594;BME280;6362;50.208;9.182;2023-05-15T11:43:03;99294.41;;;19.82;52.89
12594;BME280;6362;50.208;9.182;2023-05-15T11:45:30;99302.72;;;19.58;51.92
12594;BME280;6362;50.208;9.182;2023-05-15T11:47:57;99304.75;;;19.53;52.43
12594;BME280;6362;50.208;9.182;2023-05-15T11:53:20;99332.59;;;18.39;51.73
12594;BME280;6362;50.208;9.182;2023-05-15T11:55:48;99342.69;;;17.93;54.19
12594;BME280;6362;50.208;9.182;2023-05-15T11:58:17;99344.13;;;17.42;56.60
12594;BME280;6362;50.208;9.182;2023-05-15T12:00:44;99347.09;;;16.95;58.44
12594;BME280;6362;50.208;9.182;2023-05-15T12:05:41;99346.38;;;16.49;59.65
12594;BME280;6362;50.208;9.182;2023-05-15T12:08:11;99341.81;;;16.10;58.85
12594;BME280;6362;50.208;9.182;2023-05-15T12:10:44;99339.72;;;15.97;57.99
12594;BME280;6362;50.208;9.182;2023-05-15T12:13:10;99354.63;;;15.73;59.25
12594;BME280;6362;50.208;9.182;2023-05-15T12:15:40;99349.00;;;15.58;57.56
12594;BME280;6362;50.208;9.182;2023-05-15T12:18:06;99348.91;;;15.38;62.69
12594;BME280;6362;50.208;9.182;2023-05-15T12:20:34;99351.09;;;15.25;60.87
12594;BME280;6362;50.208;9.182;2023-05-15T12:23:02;99340.91;;;15.18;60.12
12594;BME280;6362;50.208;9.182;2023-05-15T12:25:28;99344.38;;;15.18;61.56
12594;BME280;6362;50.208;9.182;2023-05-15T12:27:55;99339.13;;;15.18;61.40
12594;BME280;6362;50.208;9.182;2023-05-15T12:30:21;99325.78;;;15.01;59.91
12594;BME280;6362;50.208;9.182;2023-05-15T12:32:47;99333.00;;;14.94;59.79
12594;BME280;6362;50.208;9.182;2023-05-15T12:35:13;99339.69;;;14.78;60.77
12594;BME280;6362;50.208;9.182;2023-05-15T12:37:38;99339.78;;;14.75;62.49
12594;BME280;6362;50.208;9.182;2023-05-15T12:40:05;99348.53;;;14.74;63.75
12594;BME280;6362;50.208;9.182;2023-05-15T12:42:41;99332.03;;;14.72;65.04
12594;BME280;6362;50.208;9.182;2023-05-15T12:45:15;99327.03;;;14.66;65.90
12594;BME280;6362;50.208;9.182;2023-05-15T12:47:42;99327.88;;;14.66;65.31
12594;BME280;6362;50.208;9.182;2023-05-15T12:50:18;99321.50;;;14.73;67.59
12594;BME280;6362;50.208;9.182;2023-05-15T12:52:52;99310.81;;;14.79;68.19
12594;BME280;6362;50.208;9.182;2023-05-15T12:55:23;99301.59;;;14.94;67.91
12594;BME280;6362;50.208;9.182;2023-05-15T12:57:50;99301.38;;;15.24;62.31
12594;BME280;6362;50.208;9.182;2023-05-15T13:00:16;99304.09;;;15.21;68.94
12594;BME280;6362;50.208;9.182;2023-05-15T13:02:43;99306.91;;;15.40;68.04
12594;BME280;6362;50.208;9.182;2023-05-15T13:05:09;99305.53;;;15.76;68.81
12594;BME280;6362;50.208;9.182;2023-05-15T13:07:35;99305.19;;;16.07;65.78
12594;BME280;6362;50.208;9.182;2023-05-15T13:10:04;99299.34;;;16.43;62.51
12594;BME280;6362;50.208;9.182;2023-05-15T13:12:37;99300.13;;;16.67;59.26
12594;BME280;6362;50.208;9.182;2023-05-15T13:15:05;99298.53;;;17.04;58.78
12594;BME280;6362;50.208;9.182;2023-05-15T13:17:31;99309.31;;;17.37;58.22
12594;BME280;6362;50.208;9.182;2023-05-15T13:19:59;99302.88;;;17.63;58.96
12594;BME280;6362;50.208;9.182;2023-05-15T13:22:24;99308.09;;;17.83;58.43
12594;BME280;6362;50.208;9.182;2023-05-15T13:24:51;99300.47;;;17.96;60.58
12594;BME280;6362;50.208;9.182;2023-05-15T13:27:17;99307.41;;;18.16;57.98
12594;BME280;6362;50.208;9.182;2023-05-15T13:29:42;99311.22;;;18.28;57.20
12594;BME280;6362;50.208;9.182;2023-05-15T13:32:07;99310.75;;;18.37;59.43
12594;BME280;6362;50.208;9.182;2023-05-15T13:34:33;99305.97;;;18.45;57.30
12594;BME280;6362;50.208;9.182;2023-05-15T13:36:59;99306.28;;;18.56;57.31
12594;BME280;6362;50.208;9.182;2023-05-15T13:39:24;99315.34;;;18.51;54.72
12594;BME280;6362;50.208;9.182;2023-05-15T13:41:50;99308.53;;;18.46;53.63
12594;BME280;6362;50.208;9.182;2023-05-15T13:44:15;99302.56;;;18.60;53.65
12594;BME280;6362;50.208;9.182;2023-05-15T13:46:40;99302.41;;;18.63;53.29
12594;BME280;6362;50.208;9.182;2023-05-15T13:49:07;99308.72;;;18.78;54.56
12594;BME280;6362;50.208;9.182;2023-05-15T13:51:32;99307.63;;;18.82;53.22